Time;durP1;ratioP1;P1;durP2;ratioP2;P2;SDS_P1;SDS_P2;PMS_P1;PMS_P2;Temp;Humidity;BMP_temperature;BMP_pressure;BME280_temperature;BME280_humidity;BME280_pressure;Samples;Min_cycle;Max_cycle;Signal;HPM_P1;HPM_P2
2023/09/19 00:00:01;;;;;;;;;;;;;;;14.58;100.00;100513.19;1056315;28;19932;-49
2023/09/19 00:00:47;;;;;;;;;;;;;;;14.61;100.00;100522.59;1046104;28;20377;-51
2023/09/19 00:01:20;;;;;;;;;;;;;;;14.61;100.00;100517.22;1048081;28;19931;-52
2023/09/19 00:02:04;;;;;;;;;;;;;;;14.55;100.00;100523.59;1052434;28;20014;-54
2023/09/19 00:02:39;;;;;;;;;;;;;;;14.46;100.00;100532.06;1059006;28;19980;-54
2023/09/19 00:03:22;;;;;;;;;;;;;;;14.53;100.00;100526.53;1060792;28;19923;-54
2023/09/19 00:04:15;;;;;;;;;;;;;;;14.57;100.00;100524.97;1049302;28;19929;-54
2023/09/19 00:04:56;;;;;;;;;;;;;;;14.60;100.00;100534.38;1056433;28;20022;-54
2023/09/19 00:05:50;;;;;;;;;;;;;;;14.58;100.00;100533.81;1052634;28;20308;-54
2023/09/19 00:06:21;;;;;;;;;;;;;;;14.59;100.00;100530.06;1056411;28;19931;-53
2023/09/19 00:06:57;;;;;;;;;;;;;;;14.58;100.00;100531.13;1056712;28;19924;-50
2023/09/19 00:07:40;;;;;;;;;;;;;;;14.57;100.00;100541.03;1056050;28;20144;-50
2023/09/19 00:08:27;;;;;;;;;;;;;;;14.41;100.00;100534.66;1056774;28;19924;-49
2023/09/19 00:09:13;;;;;;;;;;;;;;;14.48;100.00;100540.66;1052301;28;19928;-54
2023/09/19 00:09:46;;;;;;;;;;;;;;;14.53;100.00;100532.69;1057081;28;20037;-53
2023/09/19 00:10:26;;;;;;;;;;;;;;;14.31;100.00;100534.53;1056224;28;19924;-54
2023/09/19 00:11:05;;;;;;;;;;;;;;;14.41;100.00;100540.00;1060000;28;19932;-54
2023/09/19 00:11:38;;;;;;;;;;;;;;;14.46;100.00;100536.59;1060842;28;19973;-54
2023/09/19 00:12:09;;;;;;;;;;;;;;;14.30;100.00;100535.59;1061121;28;19923;-54
2023/09/19 00:12:42;;;;;;;;;;;;;;;14.42;100.00;100533.59;1060402;28;19932;-54
2023/09/19 00:13:14;;;;;;;;;;;;;;;14.47;100.00;100538.22;1060692;28;20008;-55
2023/09/19 00:13:49;;;;;;;;;;;;;;;14.47;100.00;100533.66;1061592;28;19954;-51
2023/09/19 00:14:24;;;;;;;;;;;;;;;14.40;100.00;100542.94;1060621;28;19930;-49
2023/09/19 00:14:56;;;;;;;;;;;;;;;14.41;100.00;100539.19;1060937;28;20052;-51
2023/09/19 00:15:28;;;;;;;;;;;;;;;14.44;100.00;100538.72;1060706;28;19923;-52
2023/09/19 00:16:00;;;;;;;;;;;;;;;14.44;100.00;100534.16;1060507;28;19939;-48
2023/09/19 00:16:32;;;;;;;;;;;;;;;14.47;100.00;100544.38;1060973;28;19923;-51
2023/09/19 00:17:08;;;;;;;;;;;;;;;14.47;100.00;100543.59;1060796;28;19923;-49
2023/09/19 00:17:40;;;;;;;;;;;;;;;14.45;100.00;100538.47;1060551;28;19976;-50
2023/09/19 00:18:15;;;;;;;;;;;;;;;14.46;100.00;100537.41;1060773;28;19931;-54
2023/09/19 00:18:48;;;;;;;;;;;;;;;14.46;100.00;100542.78;1060698;27;19927;-54
2023/09/19 00:19:20;;;;;;;;;;;;;;;14.39;100.00;100542.13;1060756;28;19975;-54
2023/09/19 00:19:52;;;;;;;;;;;;;;;14.48;100.00;100537.97;1060782;28;20030;-54
2023/09/19 00:20:24;;;;;;;;;;;;;;;14.47;100.00;100541.72;1060498;28;19927;-54
2023/09/19 00:20:58;;;;;;;;;;;;;;;14.49;100.00;100547.63;1060429;28;20012;-51
2023/09/19 00:21:31;;;;;;;;;;;;;;;14.45;100.00;100545.69;1060696;28;20014;-50
2023/09/19 00:22:03;;;;;;;;;;;;;;;14.45;100.00;100546.50;1058611;28;19923;-52
2023/09/19 00:22:36;;;;;;;;;;;;;;;14.45;100.00;100543.84;1060444;28;20014;-52
2023/09/19 00:23:11;;;;;;;;;;;;;;;14.48;100.00;100543.34;1055993;28;19930;-51
2023/09/19 00:23:42;;;;;;;;;;;;;;;14.45;100.00;100546.50;1056996;28;20038;-50
2023/09/19 00:24:14;;;;;;;;;;;;;;;14.47;100.00;100549.75;1056645;28;19934;-51
2023/09/19 00:24:45;;;;;;;;;;;;;;;14.47;100.00;100544.38;1056543;28;20437;-48
2023/09/19 00:25:17;;;;;;;;;;;;;;;14.43;100.00;100542.47;1060782;28;19942;-51
2023/09/19 00:25:50;;;;;;;;;;;;;;;14.40;100.00;100542.94;1060777;28;19923;-54
2023/09/19 00:26:22;;;;;;;;;;;;;;;14.40;100.00;100543.75;1058422;28;19923;-54
2023/09/19 00:26:55;;;;;;;;;;;;;;;14.39;100.00;100544.81;1055814;28;19923;-54
2023/09/19 00:27:27;;;;;;;;;;;;;;;14.33;100.00;100545.78;1055826;28;19927;-54
2023/09/19 00:27:59;;;;;;;;;;;;;;;14.28;100.00;100548.41;1055738;28;20027;-54
2023/09/19 00:28:31;;;;;;;;;;;;;;;14.26;100.00;100555.91;1052902;28;19926;-54
2023/09/19 00:29:03;;;;;;;;;;;;;;;14.15;100.00;100551.44;1047284;28;19964;-54
2023/09/19 00:29:35;;;;;;;;;;;;;;;14.27;100.00;100549.47;1048606;28;19932;-54
2023/09/19 00:30:14;;;;;;;;;;;;;;;14.23;100.00;100551.00;1057097;28;19924;-54
2023/09/19 00:30:49;;;;;;;;;;;;;;;14.27;100.00;100552.16;1055002;28;19972;-53
2023/09/19 00:31:25;;;;;;;;;;;;;;;14.30;100.00;100543.63;1056041;28;19924;-53
2023/09/19 00:31:59;;;;;;;;;;;;;;;14.34;100.00;100543.94;1052172;28;20648;-54
2023/09/19 00:32:31;;;;;;;;;;;;;;;14.26;100.00;100547.84;1053592;28;19924;-54
2023/09/19 00:33:05;;;;;;;;;;;;;;;14.35;100.00;100546.34;1055827;28;19931;-54
2023/09/19 00:33:38;;;;;;;;;;;;;;;14.36;100.00;100545.31;1052984;28;19931;-54
2023/09/19 00:34:10;;;;;;;;;;;;;;;14.25;100.00;100546.25;1057241;28;20006;-49
2023/09/19 00:34:42;;;;;;;;;;;;;;;14.24;100.00;100549.94;1054216;28;19931;-52
2023/09/19 00:35:15;;;;;;;;;;;;;;;14.28;100.00;100545.75;1052375;28;19971;-50
2023/09/19 00:35:50;;;;;;;;;;;;;;;14.32;100.00;100552.22;1056220;28;20044;-50
2023/09/19 00:36:21;;;;;;;;;;;;;;;14.34;100.00;100549.28;1055883;28;19924;-54
2023/09/19 00:36:54;;;;;;;;;;;;;;;14.21;100.00;100550.44;1057643;28;20013;-54
2023/09/19 00:37:26;;;;;;;;;;;;;;;14.26;100.00;100558.56;1059975;28;19924;-54
2023/09/19 00:37:57;;;;;;;;;;;;;;;14.33;100.00;100559.19;1060547;28;19931;-54
2023/09/19 00:38:29;;;;;;;;;;;;;;;14.33;100.00;100553.03;1056374;28;19924;-54
2023/09/19 00:39:00;;;;;;;;;;;;;;;14.27;100.00;100552.16;1055767;28;20018;-53
2023/09/19 00:39:32;;;;;;;;;;;;;;;14.33;100.00;100550.34;1056000;28;19962;-54
2023/09/19 00:40:05;;;;;;;;;;;;;;;14.20;100.00;100548.81;1052261;28;20334;-54
2023/09/19 00:40:37;;;;;;;;;;;;;;;14.10;100.00;100554.03;1056035;28;19972;-54
2023/09/19 00:41:09;;;;;;;;;;;;;;;14.11;100.00;100559.16;1055662;28;19938;-49
2023/09/19 00:41:40;;;;;;;;;;;;;;;14.09;100.00;100549.75;1056150;28;19924;-49
2023/09/19 00:42:19;;;;;;;;;;;;;;;14.19;100.00;100548.00;1056757;28;20096;-50
2023/09/19 00:42:50;;;;;;;;;;;;;;;14.15;100.00;100551.44;1060502;28;19930;-50
2023/09/19 00:43:24;;;;;;;;;;;;;;;14.17;100.00;100550.13;1060848;28;20294;-52
2023/09/19 00:43:57;;;;;;;;;;;;;;;14.16;100.00;100553.06;1056117;28;20013;-51
2023/09/19 00:44:28;;;;;;;;;;;;;;;14.15;100.00;100551.44;1056579;28;19994;-52
2023/09/19 00:45:03;;;;;;;;;;;;;;;14.18;100.00;100551.75;1056718;28;19932;-49
2023/09/19 00:45:35;;;;;;;;;;;;;;;14.19;100.00;100552.56;1057017;28;20390;-48
2023/09/19 00:46:07;;;;;;;;;;;;;;;14.04;100.00;100550.50;1054522;28;19936;-53
2023/09/19 00:46:39;;;;;;;;;;;;;;;14.10;100.00;100548.69;1056929;28;19928;-54
2023/09/19 00:47:16;;;;;;;;;;;;;;;14.15;100.00;100551.44;1056543;28;19927;-53
2023/09/19 00:47:49;;;;;;;;;;;;;;;14.04;100.00;100549.69;1054104;28;20321;-54
2023/09/19 00:48:21;;;;;;;;;;;;;;;14.10;100.00;100559.41;1052721;28;19963;-54
2023/09/19 00:48:53;;;;;;;;;;;;;;;14.15;100.00;100562.97;1043998;28;20366;-54
2023/09/19 00:49:25;;;;;;;;;;;;;;;13.96;100.00;100560.78;1040375;28;19925;-54
2023/09/19 00:49:57;;;;;;;;;;;;;;;14.08;100.00;100556.16;1041163;28;19944;-50
2023/09/19 00:50:28;;;;;;;;;;;;;;;14.12;100.00;100559.97;1046570;28;19947;-52
2023/09/19 00:51:03;;;;;;;;;;;;;;;14.00;100.00;100562.75;1052308;28;19928;-52
2023/09/19 00:51:35;;;;;;;;;;;;;;;13.99;100.00;100560.31;1053333;28;19924;-51
2023/09/19 00:52:07;;;;;;;;;;;;;;;14.04;100.00;100565.75;1053263;28;19943;-51
2023/09/19 00:52:39;;;;;;;;;;;;;;;13.99;100.00;100557.66;1056283;28;19952;-52
2023/09/19 00:53:13;;;;;;;;;;;;;;;14.11;100.00;100561.03;1056919;28;20411;-51
2023/09/19 00:53:46;;;;;;;;;;;;;;;14.12;100.00;100559.97;1053320;28;19931;-52
2023/09/19 00:54:18;;;;;;;;;;;;;;;14.15;100.00;100562.16;1052291;28;19962;-51
2023/09/19 00:54:50;;;;;;;;;;;;;;;14.20;100.00;100560.34;1044331;28;19925;-50
2023/09/19 00:55:21;;;;;;;;;;;;;;;14.22;100.00;100563.59;1044345;28;20311;-51
2023/09/19 00:55:53;;;;;;;;;;;;;;;14.00;100.00;100568.13;1048806;28;19932;-49
2023/09/19 00:56:24;;;;;;;;;;;;;;;13.69;100.00;100564.13;1053317;28;20411;-51
2023/09/19 00:56:56;;;;;;;;;;;;;;;13.96;100.00;100574.19;1054690;27;19924;-52
2023/09/19 00:57:27;;;;;;;;;;;;;;;14.01;100.00;100569.72;1056614;28;19923;-50
2023/09/19 00:57:59;;;;;;;;;;;;;;;14.14;100.00;100566.69;1057258;28;19930;-50
2023/09/19 00:58:35;;;;;;;;;;;;;;;14.01;100.00;100566.25;1057160;28;20449;-52
2023/09/19 00:59:06;;;;;;;;;;;;;;;14.11;100.00;100563.69;1055699;27;20306;-52
2023/09/19 00:59:38;;;;;;;;;;;;;;;14.11;100.00;100561.03;1056867;28;20414;-52
2023/09/19 01:00:12;;;;;;;;;;;;;;;14.15;100.00;100564.81;1048185;28;19924;-51
2023/09/19 01:00:45;;;;;;;;;;;;;;;14.13;100.00;100566.94;1044428;28;19925;-52
2023/09/19 01:01:17;;;;;;;;;;;;;;;14.17;100.00;100566.19;1038996;28;19988;-51
2023/09/19 01:01:53;;;;;;;;;;;;;;;14.08;100.00;100573.03;1045564;28;19947;-54
2023/09/19 01:02:27;;;;;;;;;;;;;;;14.06;100.00;100569.81;1053711;28;20309;-54
2023/09/19 01:02:58;;;;;;;;;;;;;;;14.17;100.00;100565.38;1058288;27;19931;-54
2023/09/19 01:03:30;;;;;;;;;;;;;;;14.19;100.00;100571.31;1061229;27;19923;-54
2023/09/19 01:04:02;;;;;;;;;;;;;;;14.01;100.00;100576.97;1056753;28;19931;-53
2023/09/19 01:04:34;;;;;;;;;;;;;;;14.10;100.00;100570.13;1052481;28;19959;-51
2023/09/19 01:05:05;;;;;;;;;;;;;;;14.14;100.00;100576.59;1043412;28;19933;-49
2023/09/19 01:05:45;;;;;;;;;;;;;;;14.17;100.00;100573.44;1045800;28;20193;-51
2023/09/19 01:06:19;;;;;;;;;;;;;;;14.13;100.00;100580.34;1050533;28;19924;-54
2023/09/19 01:06:53;;;;;;;;;;;;;;;14.19;100.00;100574.00;1056033;27;19931;-54
2023/09/19 01:07:25;;;;;;;;;;;;;;;14.15;100.00;100573.66;1056433;28;20027;-53
2023/09/19 01:07:57;;;;;;;;;;;;;;;14.18;100.00;100575.03;1052497;28;19924;-54
2023/09/19 01:08:29;;;;;;;;;;;;;;;14.10;100.00;100587.00;1052575;28;19947;-53
2023/09/19 01:09:03;;;;;;;;;;;;;;;14.16;100.00;100575.28;1051052;28;19928;-54
2023/09/19 01:09:34;;;;;;;;;;;;;;;14.20;100.00;100575.59;1057599;27;20069;-52
2023/09/19 01:10:10;;;;;;;;;;;;;;;14.14;100.00;100577.41;1056474;28;19923;-52
2023/09/19 01:10:55;;;;;;;;;;;;;;;14.19;100.00;100579.34;1056390;28;20030;-52
2023/09/19 01:11:34;;;;;;;;;;;;;;;14.18;100.00;100577.72;1058140;28;19927;-53
2023/09/19 01:12:06;;;;;;;;;;;;;;;14.14;100.00;100581.97;1051990;28;19983;-51
2023/09/19 01:12:40;;;;;;;;;;;;;;;14.16;100.00;100585.19;1048522;28;19924;-49
2023/09/19 01:13:21;;;;;;;;;;;;;;;14.27;100.00;100578.13;1048252;28;19932;-52
2023/09/19 01:14:11;;;;;;;;;;;;;;;14.22;100.00;100589.56;1052484;28;19975;-51
2023/09/19 01:14:48;;;;;;;;;;;;;;;14.27;100.00;100581.63;1056723;28;19924;-54
2023/09/19 01:15:28;;;;;;;;;;;;;;;14.22;100.00;100573.50;1052218;28;19973;-53
2023/09/19 01:16:11;;;;;;;;;;;;;;;14.22;100.00;100578.84;1052594;28;19932;-54
2023/09/19 01:16:46;;;;;;;;;;;;;;;14.29;100.00;100581.38;1056368;28;19923;-53
2023/09/19 01:17:24;;;;;;;;;;;;;;;14.28;100.00;100577.06;1060354;27;19927;-50
2023/09/19 01:18:01;;;;;;;;;;;;;;;14.28;100.00;100588.59;1056557;28;20004;-50
2023/09/19 01:18:33;;;;;;;;;;;;;;;14.23;100.00;100586.63;1052395;28;19939;-51
2023/09/19 01:19:22;;;;;;;;;;;;;;;14.23;100.00;100585.81;1052560;28;19978;-50
2023/09/19 01:20:02;;;;;;;;;;;;;;;14.18;100.00;100599.16;1052051;28;19999;-54
2023/09/19 01:20:43;;;;;;;;;;;;;;;14.17;100.00;100593.00;1056644;28;19930;-54
2023/09/19 01:21:34;;;;;;;;;;;;;;;14.20;100.00;100591.69;1052309;28;19970;-54
2023/09/19 01:22:09;;;;;;;;;;;;;;;14.22;100.00;100587.69;1057070;28;19947;-52
2023/09/19 01:22:45;;;;;;;;;;;;;;;14.18;100.00;100583.88;1052507;28;20314;-50
2023/09/19 01:23:35;;;;;;;;;;;;;;;14.19;100.00;100590.06;1046288;28;19925;-52
2023/09/19 01:24:21;;;;;;;;;;;;;;;14.20;100.00;100591.69;1046435;28;20314;-51
2023/09/19 01:24:55;;;;;;;;;;;;;;;14.11;100.00;100593.16;1055703;28;19931;-53
2023/09/19 01:25:33;;;;;;;;;;;;;;;14.16;100.00;100593.22;1053723;28;19935;-51
2023/09/19 01:26:11;;;;;;;;;;;;;;;14.15;100.00;100589.75;1052546;28;19928;-48
2023/09/19 01:26:49;;;;;;;;;;;;;;;14.13;100.00;100602.56;1048389;28;20019;-51
2023/09/19 01:27:39;;;;;;;;;;;;;;;14.03;100.00;100596.25;1054736;28;20027;-53
2023/09/19 01:28:21;;;;;;;;;;;;;;;14.03;100.00;100598.94;1056665;28;19958;-54
2023/09/19 01:28:57;;;;;;;;;;;;;;;14.04;100.00;100592.53;1061360;27;19923;-54
2023/09/19 01:29:49;;;;;;;;;;;;;;;14.05;100.00;100592.28;1061193;27;20396;-54
2023/09/19 01:30:22;;;;;;;;;;;;;;;14.03;100.00;100596.25;1062634;27;20424;-54
2023/09/19 01:30:57;;;;;;;;;;;;;;;14.04;100.00;100600.56;1056847;28;20301;-54
2023/09/19 01:31:33;;;;;;;;;;;;;;;14.04;100.00;100597.88;1052667;28;20531;-53
2023/09/19 01:32:06;;;;;;;;;;;;;;;14.11;100.00;100593.16;1044119;28;19928;-54
2023/09/19 01:32:40;;;;;;;;;;;;;;;13.98;100.00;100593.50;1046020;28;19925;-52
2023/09/19 01:33:14;;;;;;;;;;;;;;;14.04;100.00;100593.34;1049480;28;20341;-50
2023/09/19 01:34:16;;;;;;;;;;;;;;;14.06;100.00;100595.78;1049824;28;19932;-51
2023/09/19 01:34:52;;;;;;;;;;;;;;;14.00;100.00;100596.75;1039318;28;20024;-51
2023/09/19 01:35:24;;;;;;;;;;;;;;;14.03;100.00;100601.63;1057249;27;19997;-54
2023/09/19 01:35:58;;;;;;;;;;;;;;;14.06;100.00;100595.78;1061124;27;19950;-54
2023/09/19 01:36:35;;;;;;;;;;;;;;;13.98;100.00;100598.88;1056336;28;19930;-54
2023/09/19 01:37:07;;;;;;;;;;;;;;;14.03;100.00;100601.63;1057599;28;19924;-51
2023/09/19 01:37:39;;;;;;;;;;;;;;;14.03;100.00;100602.44;1054379;28;19924;-54
2023/09/19 01:38:11;;;;;;;;;;;;;;;14.03;100.00;100604.31;1052859;28;19924;-54
2023/09/19 01:38:42;;;;;;;;;;;;;;;14.00;100.00;100596.75;1056530;28;20457;-53
2023/09/19 01:39:15;;;;;;;;;;;;;;;14.04;100.00;100601.38;1048266;28;20021;-54
2023/09/19 01:39:48;;;;;;;;;;;;;;;13.97;100.00;100598.06;1047887;28;19925;-54
2023/09/19 01:40:20;;;;;;;;;;;;;;;13.97;100.00;100599.91;1040387;28;20071;-53
2023/09/19 01:40:58;;;;;;;;;;;;;;;13.97;100.00;100605.25;1046039;28;20024;-54
2023/09/19 01:41:33;;;;;;;;;;;;;;;13.96;100.00;100600.94;1048166;28;19925;-54
2023/09/19 01:42:25;;;;;;;;;;;;;;;13.99;100.00;100605.84;1048081;28;19931;-54
2023/09/19 01:43:00;;;;;;;;;;;;;;;14.03;100.00;100602.44;1047463;28;19928;-50
2023/09/19 01:43:32;;;;;;;;;;;;;;;14.08;100.00;100599.81;1047743;28;19925;-49
2023/09/19 01:44:05;;;;;;;;;;;;;;;14.08;100.00;100599.00;1054460;28;20351;-50
2023/09/19 01:44:41;;;;;;;;;;;;;;;14.02;100.00;100598.13;1056212;28;20010;-50
2023/09/19 01:45:13;;;;;;;;;;;;;;;14.00;100.00;100602.13;1056390;28;19930;-51
2023/09/19 01:45:50;;;;;;;;;;;;;;;14.03;100.00;100598.94;1049110;28;20061;-48
2023/09/19 01:46:25;;;;;;;;;;;;;;;14.03;100.00;100607.78;1052015;28;19931;-49
2023/09/19 01:46:58;;;;;;;;;;;;;;;13.98;100.00;100604.22;1048389;28;19995;-52
2023/09/19 01:47:36;;;;;;;;;;;;;;;13.98;100.00;100609.59;1052221;28;20142;-51
2023/09/19 01:48:18;;;;;;;;;;;;;;;13.97;100.00;100608.78;1056099;28;19924;-49
2023/09/19 01:48:56;;;;;;;;;;;;;;;13.99;100.00;100609.34;1059930;27;19924;-49
2023/09/19 01:49:46;;;;;;;;;;;;;;;14.03;100.00;100607.78;1052170;28;19928;-49
2023/09/19 01:50:20;;;;;;;;;;;;;;;14.02;100.00;100600.00;1052076;28;20339;-54
2023/09/19 01:50:55;;;;;;;;;;;;;;;14.01;100.00;100606.41;1053659;28;20329;-53
2023/09/19 01:51:33;;;;;;;;;;;;;;;14.00;100.00;100602.94;1056043;28;19951;-49
2023/09/19 01:52:16;;;;;;;;;;;;;;;13.99;100.00;100605.84;1055686;28;19924;-51
2023/09/19 01:52:55;;;;;;;;;;;;;;;13.74;100.00;100601.72;1059938;27;20142;-50
2023/09/19 01:53:28;;;;;;;;;;;;;;;13.86;100.00;100605.09;1061240;27;19938;-54
2023/09/19 01:54:02;;;;;;;;;;;;;;;13.88;100.00;100605.66;1062171;27;19923;-54
2023/09/19 01:54:40;;;;;;;;;;;;;;;13.87;100.00;100605.91;1050592;28;20398;-48
2023/09/19 01:55:14;;;;;;;;;;;;;;;13.92;100.00;100606.00;1048313;28;19924;-51
2023/09/19 01:55:49;;;;;;;;;;;;;;;13.91;100.00;100605.19;1048363;28;19924;-49
2023/09/19 01:56:22;;;;;;;;;;;;;;;13.90;100.00;100608.09;1051818;28;19924;-49
2023/09/19 01:57:03;;;;;;;;;;;;;;;13.87;100.00;100604.03;1053820;28;19931;-49
2023/09/19 01:57:37;;;;;;;;;;;;;;;13.89;100.00;100603.81;1051952;28;19924;-48
2023/09/19 01:58:15;;;;;;;;;;;;;;;13.83;100.00;100610.13;1043537;28;19924;-49
2023/09/19 01:58:47;;;;;;;;;;;;;;;13.87;100.00;100606.72;1042520;28;19925;-51
2023/09/19 01:59:24;;;;;;;;;;;;;;;13.92;100.00;100606.00;1045194;28;19964;-51
2023/09/19 02:00:06;;;;;;;;;;;;;;;13.87;100.00;100609.41;1045883;28;19933;-48
2023/09/19 02:00:44;;;;;;;;;;;;;;;13.87;100.00;100609.41;1048089;28;20271;-53
2023/09/19 02:01:17;;;;;;;;;;;;;;;13.88;100.00;100604.84;1048633;28;20434;-53
2023/09/19 02:01:49;;;;;;;;;;;;;;;13.78;100.00;100608.19;1046836;28;19924;-54
2023/09/19 02:02:22;;;;;;;;;;;;;;;13.77;100.00;100603.91;1046073;28;19925;-54
2023/09/19 02:02:55;;;;;;;;;;;;;;;13.72;100.00;100616.38;1042207;28;19925;-53
2023/09/19 02:03:28;;;;;;;;;;;;;;;13.75;100.00;100611.34;1048684;28;20322;-49
2023/09/19 02:04:00;;;;;;;;;;;;;;;13.81;100.00;100610.38;1044769;28;19925;-51
2023/09/19 02:04:34;;;;;;;;;;;;;;;13.84;100.00;100609.88;1045300;28;20291;-51
2023/09/19 02:05:06;;;;;;;;;;;;;;;13.89;100.00;100607.28;1048184;28;19933;-51
2023/09/19 02:05:39;;;;;;;;;;;;;;;13.87;100.00;100604.03;1049452;28;19924;-48
2023/09/19 02:06:18;;;;;;;;;;;;;;;13.84;100.00;100615.25;1057498;27;19928;-54
2023/09/19 02:06:49;;;;;;;;;;;;;;;13.82;100.00;100612.00;1060868;27;19923;-54
2023/09/19 02:07:21;;;;;;;;;;;;;;;13.82;100.00;100612.00;1060661;27;19984;-54
2023/09/19 02:07:55;;;;;;;;;;;;;;;13.84;100.00;100620.59;1056673;28;19924;-54
2023/09/19 02:08:27;;;;;;;;;;;;;;;13.85;100.00;100616.88;1056415;28;19932;-52
2023/09/19 02:08:59;;;;;;;;;;;;;;;13.89;100.00;100609.97;1051935;28;19924;-50
2023/09/19 02:09:30;;;;;;;;;;;;;;;13.87;100.00;100614.75;1053051;28;19924;-50
2023/09/19 02:10:05;;;;;;;;;;;;;;;13.87;100.00;100616.63;1056522;28;20018;-50
2023/09/19 02:10:37;;;;;;;;;;;;;;;13.83;100.00;100616.31;1057293;27;19996;-51
2023/09/19 02:11:08;;;;;;;;;;;;;;;13.87;100.00;100617.44;1056431;28;19931;-52
2023/09/19 02:11:40;;;;;;;;;;;;;;;13.91;100.00;100617.75;1052147;28;20069;-50
2023/09/19 02:12:13;;;;;;;;;;;;;;;13.91;100.00;100612.41;1052245;28;20413;-50
2023/09/19 02:12:45;;;;;;;;;;;;;;;13.88;100.00;100620.91;1052770;28;19957;-51
2023/09/19 02:13:18;;;;;;;;;;;;;;;13.94;100.00;100614.59;1057358;27;19931;-49
2023/09/19 02:13:54;;;;;;;;;;;;;;;13.93;100.00;100629.03;1056288;28;19924;-52
2023/09/19 02:14:25;;;;;;;;;;;;;;;13.95;100.00;100620.75;1056593;28;19960;-48
2023/09/19 02:14:57;;;;;;;;;;;;;;;13.96;100.00;100619.69;1056246;28;19931;-49
2023/09/19 02:15:29;;;;;;;;;;;;;;;13.94;100.00;100619.94;1056718;28;19924;-50
2023/09/19 02:16:00;;;;;;;;;;;;;;;13.91;100.00;100623.91;1052120;28;19924;-54
2023/09/19 02:16:32;;;;;;;;;;;;;;;13.88;100.00;100621.72;1052090;28;20002;-53
2023/09/19 02:17:07;;;;;;;;;;;;;;;13.88;100.00;100619.06;1049326;28;20061;-54
2023/09/19 02:17:39;;;;;;;;;;;;;;;13.85;100.00;100622.22;1051342;28;19932;-53
2023/09/19 02:18:14;;;;;;;;;;;;;;;13.89;100.00;100626.03;1050532;28;20308;-54
2023/09/19 02:18:52;;;;;;;;;;;;;;;13.91;100.00;100623.09;1048593;28;19925;-48
2023/09/19 02:19:23;;;;;;;;;;;;;;;13.97;100.00;100630.19;1050868;28;20336;-50
2023/09/19 02:19:55;;;;;;;;;;;;;;;13.91;100.00;100621.25;1057783;27;20416;-50
2023/09/19 02:20:26;;;;;;;;;;;;;;;13.68;100.00;100624.06;1060951;27;19934;-52
2023/09/19 02:20:58;;;;;;;;;;;;;;;13.84;100.00;100620.59;1061053;27;19923;-50
2023/09/19 02:21:30;;;;;;;;;;;;;;;13.74;100.00;100623.13;1055936;28;19930;-51
2023/09/19 02:22:09;;;;;;;;;;;;;;;13.81;100.00;100621.09;1051955;28;19924;-52
2023/09/19 02:22:41;;;;;;;;;;;;;;;13.93;100.00;100621.81;1047897;28;19994;-52
2023/09/19 02:23:13;;;;;;;;;;;;;;;13.91;100.00;100621.25;1049513;28;19925;-49
2023/09/19 02:23:47;;;;;;;;;;;;;;;13.93;100.00;100613.78;1051173;28;20320;-51
2023/09/19 02:24:19;;;;;;;;;;;;;;;13.92;100.00;100616.69;1056968;28;19935;-51
2023/09/19 02:24:50;;;;;;;;;;;;;;;13.88;100.00;100621.72;1055928;28;19927;-48
2023/09/19 02:25:22;;;;;;;;;;;;;;;13.88;100.00;100626.28;1056690;28;19986;-50
2023/09/19 02:25:54;;;;;;;;;;;;;;;13.71;100.00;100615.56;1056057;28;20334;-51
2023/09/19 02:26:27;;;;;;;;;;;;;;;13.81;100.00;100612.25;1048327;28;20011;-50
2023/09/19 02:27:03;;;;;;;;;;;;;;;13.86;100.00;100623.03;1052426;28;20048;-52
2023/09/19 02:27:36;;;;;;;;;;;;;;;13.87;100.00;100620.13;1052119;28;19994;-49
2023/09/19 02:28:09;;;;;;;;;;;;;;;13.87;100.00;100614.75;1053234;28;19928;-51
2023/09/19 02:28:40;;;;;;;;;;;;;;;13.87;100.00;100614.75;1056413;28;20429;-50
2023/09/19 02:29:14;;;;;;;;;;;;;;;13.85;100.00;100619.53;1057388;27;19923;-53
2023/09/19 02:29:46;;;;;;;;;;;;;;;13.79;100.00;100612.50;1058602;27;19927;-49
2023/09/19 02:30:20;;;;;;;;;;;;;;;13.76;100.00;100618.34;1060856;27;19930;-49
2023/09/19 02:30:53;;;;;;;;;;;;;;;13.82;100.00;100621.91;1059975;27;19923;-50
2023/09/19 02:31:24;;;;;;;;;;;;;;;13.68;100.00;100620.56;1060899;27;19923;-53
2023/09/19 02:31:58;;;;;;;;;;;;;;;13.76;100.00;100623.69;1056524;28;19928;-53
2023/09/19 02:32:36;;;;;;;;;;;;;;;13.71;100.00;100626.28;1056323;28;19950;-54
2023/09/19 02:33:08;;;;;;;;;;;;;;;13.64;100.00;100619.44;1056198;28;20396;-54
2023/09/19 02:33:39;;;;;;;;;;;;;;;13.69;100.00;100633.72;1057864;27;19952;-54
2023/09/19 02:34:11;;;;;;;;;;;;;;;13.68;100.00;100625.94;1061165;27;19923;-50
2023/09/19 02:34:44;;;;;;;;;;;;;;;13.59;100.00;100620.97;1061108;27;19930;-50
2023/09/19 02:35:16;;;;;;;;;;;;;;;13.68;100.00;100621.38;1060784;27;19930;-48
2023/09/19 02:35:48;;;;;;;;;;;;;;;13.70;100.00;100624.66;1060789;27;20412;-50
2023/09/19 02:36:19;;;;;;;;;;;;;;;13.73;100.00;100628.72;1061082;27;20393;-53
2023/09/19 02:36:53;;;;;;;;;;;;;;;13.76;100.00;100615.66;1061007;27;20297;-54
2023/09/19 02:37:25;;;;;;;;;;;;;;;13.81;100.00;100618.41;1056006;28;19923;-54
2023/09/19 02:37:56;;;;;;;;;;;;;;;13.79;100.00;100617.84;1056375;28;20243;-54
2023/09/19 02:38:28;;;;;;;;;;;;;;;13.77;100.00;100619.97;1052476;28;19924;-54
2023/09/19 02:39:00;;;;;;;;;;;;;;;13.64;100.00;100617.56;1052223;28;20394;-53
2023/09/19 02:39:33;;;;;;;;;;;;;;;13.61;100.00;100620.75;1051955;28;19927;-54
2023/09/19 02:40:18;;;;;;;;;;;;;;;13.71;100.00;100612.91;1052354;28;20089;-54
2023/09/19 02:40:51;;;;;;;;;;;;;;;13.68;100.00;100610.69;1054259;28;19924;-54
2023/09/19 02:41:22;;;;;;;;;;;;;;;13.70;100.00;100619.31;1054398;28;19947;-54
2023/09/19 02:41:54;;;;;;;;;;;;;;;13.70;100.00;100608.59;1056079;28;19924;-54
2023/09/19 02:42:25;;;;;;;;;;;;;;;13.69;100.00;100617.66;1056097;28;19931;-54
2023/09/19 02:42:59;;;;;;;;;;;;;;;13.68;100.00;100616.03;1056719;28;19950;-54
2023/09/19 02:43:31;;;;;;;;;;;;;;;13.60;100.00;100613.75;1056890;28;19923;-53
2023/09/19 02:44:07;;;;;;;;;;;;;;;13.63;100.00;100613.28;1052183;28;19963;-52
2023/09/19 02:44:39;;;;;;;;;;;;;;;13.65;100.00;100616.53;1043699;28;19925;-51
2023/09/19 02:45:11;;;;;;;;;;;;;;;13.64;100.00;100624.78;1044779;28;20730;-52
2023/09/19 02:45:43;;;;;;;;;;;;;;;13.65;100.00;100611.16;1048971;28;19974;-50
2023/09/19 02:46:14;;;;;;;;;;;;;;;13.62;100.00;100622.34;1048281;28;19932;-52
2023/09/19 02:46:46;;;;;;;;;;;;;;;13.56;100.00;100617.97;1052125;28;19924;-51
2023/09/19 02:47:19;;;;;;;;;;;;;;;13.58;100.00;100616.69;1052358;28;20015;-51
2023/09/19 02:47:51;;;;;;;;;;;;;;;13.61;100.00;100618.88;1057100;28;20008;-52
2023/09/19 02:48:22;;;;;;;;;;;;;;;13.64;100.00;100616.75;1060659;27;19941;-50
2023/09/19 02:48:54;;;;;;;;;;;;;;;13.59;100.00;100617.50;1060579;27;19931;-50
2023/09/19 02:49:26;;;;;;;;;;;;;;;13.49;100.00;100614.66;1061148;27;19935;-51
2023/09/19 02:49:57;;;;;;;;;;;;;;;13.47;100.00;100624.78;1056030;28;19953;-49
2023/09/19 02:50:29;;;;;;;;;;;;;;;13.46;100.00;100617.81;1055921;28;19930;-50
2023/09/19 02:51:01;;;;;;;;;;;;;;;13.53;100.00;100623.81;1056496;28;20264;-53
2023/09/19 02:51:33;;;;;;;;;;;;;;;13.51;100.00;100624.06;1052292;28;19947;-52
2023/09/19 02:52:04;;;;;;;;;;;;;;;13.52;100.00;100622.19;1051712;28;19930;-51
2023/09/19 02:52:43;;;;;;;;;;;;;;;13.55;100.00;100627.06;1048521;28;19925;-51
2023/09/19 02:53:14;;;;;;;;;;;;;;;13.48;100.00;100624.53;1045349;28;20401;-54
2023/09/19 02:53:47;;;;;;;;;;;;;;;13.48;100.00;100629.91;1049244;28;19936;-53
2023/09/19 02:54:19;;;;;;;;;;;;;;;13.48;100.00;100631.75;1049148;28;20011;-53
2023/09/19 02:54:51;;;;;;;;;;;;;;;13.45;100.00;100626.88;1047909;28;19929;-54
2023/09/19 02:55:22;;;;;;;;;;;;;;;13.45;100.00;100633.06;1052142;28;20279;-54